Crystal City, Virginia
Current Conditions -  °F | °C
As of 4:52 PM on Thursday 23 Oct 2014 (Local Time) from KDCA Reporting Station
Broken Clouds Broken Clouds  
Wind Chill: 64°   Ceiling: 5000
Heat Index: 64°   Visibility: 10mi
Dew Point: 43°   Wind: 20mph
Humidity: 46%   Direction: 330°NNW
Pressure: 29.86"   Gusts: 30mph
Location:  38.8565°N, 77.0512°W
Report Text: KDCA 232052Z 33017G26KT 10SM BKN050 18/06 A2986 RMK AO2 PK WND 32027/2039 SLP113 T01780061 58002
Loading
Personal Weather Stations






























Interactive Weather Map
Tropical Storm Tracking
New forecast layout! Learn more

10-Day Weather Forecast

Advertisements
Track Severe Weather on mobile